Time;durP1;ratioP1;P1;durP2;ratioP2;P2;SDS_P1;SDS_P2;PMS_P1;PMS_P2;Temp;Humidity;BMP_temperature;BMP_pressure;BME280_temperature;BME280_humidity;BME280_pressure;Samples;Min_cycle;Max_cycle;Signal;HPM_P1;HPM_P2
2023/04/26 00:02:03;;;;;;;9.73;2.00;;;;;;;-148.88;100.00;77079.44;5053914;28;20021;-76
2023/04/26 00:04:29;;;;;;;5.32;1.52;;;;;;;-148.88;100.00;77085.53;5054217;28;20162;-76
2023/04/26 00:06:55;;;;;;;8.68;2.40;;;;;;;-148.88;100.00;77083.50;5054390;28;20444;-76
2023/04/26 00:09:22;;;;;;;4.35;1.50;;;;;;;-148.88;100.00;77093.66;5036191;28;20118;-76
2023/04/26 00:11:48;;;;;;;5.43;1.80;;;;;;;-148.88;100.00;77105.84;5036679;28;20033;-76
2023/04/26 00:14:14;;;;;;;8.32;1.50;;;;;;;-148.88;100.00;77095.69;5054424;28;20036;-76
2023/04/26 00:16:39;;;;;;;7.60;2.30;;;;;;;-148.88;100.00;77101.78;5053754;28;20379;-76
2023/04/26 00:19:04;;;;;;;8.18;1.83;;;;;;;-148.88;100.00;77105.84;5054551;28;20043;-76
2023/04/26 00:21:30;;;;;;;5.97;1.85;;;;;;;-148.88;100.00;77111.97;5054080;28;20367;-76
2023/04/26 00:23:56;;;;;;;8.82;1.73;;;;;;;-148.88;100.00;77105.84;5054086;28;20376;-76
2023/04/26 00:26:21;;;;;;;5.00;2.00;;;;;;;-148.88;100.00;77105.84;5053533;28;20039;-76
2023/04/26 00:28:47;;;;;;;16.17;2.67;;;;;;;-148.88;100.00;77101.78;5035708;28;20082;-76
2023/04/26 00:31:16;;;;;;;9.02;1.95;;;;;;;-148.88;100.00;77099.75;5053516;28;20485;-76
2023/04/26 00:33:41;;;;;;;5.97;1.83;;;;;;;-148.88;100.00;77109.94;5053764;28;20053;-76
2023/04/26 00:36:07;;;;;;;8.55;2.20;;;;;;;-148.88;100.00;77105.84;5035823;28;20469;-76
2023/04/26 00:38:32;;;;;;;7.10;1.70;;;;;;;-148.88;100.00;77109.94;5053582;28;20037;-76
2023/04/26 00:40:57;;;;;;;7.97;2.10;;;;;;;-148.88;100.00;77118.06;5053744;28;20102;-76
2023/04/26 00:43:23;;;;;;;3.25;1.20;;;;;;;-148.88;100.00;77116.03;5053407;28;20021;-76
2023/04/26 00:45:48;;;;;;;8.70;1.88;;;;;;;-148.88;100.00;77122.13;5053457;28;20106;-76
2023/04/26 00:48:15;;;;;;;8.73;1.90;;;;;;;-148.88;100.00;77118.06;5035641;28;20071;-76
2023/04/26 00:50:40;;;;;;;6.50;1.80;;;;;;;-148.88;100.00;77107.91;5054167;28;20166;-76
2023/04/26 00:53:07;;;;;;;8.43;1.35;;;;;;;-148.88;100.00;77109.94;5053559;28;20059;-76
2023/04/26 00:55:33;;;;;;;8.05;2.13;;;;;;;-148.88;100.00;77105.84;5035684;28;20020;-76
2023/04/26 00:57:59;;;;;;;4.10;1.85;;;;;;;-148.88;100.00;77109.94;5053541;28;20036;-76
2023/04/26 01:00:24;;;;;;;5.05;1.77;;;;;;;-148.88;100.00;77122.13;5053706;28;20086;-76
2023/04/26 01:02:50;;;;;;;11.23;2.00;;;;;;;-148.88;100.00;77130.25;5035627;28;20032;-76
2023/04/26 01:05:16;;;;;;;5.18;1.20;;;;;;;-148.88;100.00;77116.03;5054095;28;20104;-76
2023/04/26 01:07:41;;;;;;;6.80;2.00;;;;;;;-148.88;100.00;77138.38;5035800;28;20108;-76
2023/04/26 01:10:08;;;;;;;12.30;1.80;;;;;;;-148.88;100.00;77148.53;5035884;28;20065;-76
2023/04/26 01:12:34;;;;;;;5.28;1.80;;;;;;;-148.88;100.00;77154.63;5048191;22;20179;-77
2023/04/26 01:15:01;;;;;;;7.43;1.50;;;;;;;-148.88;100.00;77142.44;5056673;28;20024;-77
2023/04/26 01:17:27;;;;;;;7.40;1.40;;;;;;;-148.88;100.00;77144.47;5056447;28;20400;-77
2023/04/26 01:19:52;;;;;;;3.95;1.27;;;;;;;-148.88;100.00;77150.56;5056623;28;20020;-77
2023/04/26 01:22:17;;;;;;;8.68;1.30;;;;;;;-148.88;100.00;77162.75;5056391;28;20021;-77
2023/04/26 01:24:45;;;;;;;5.97;1.42;;;;;;;-148.88;100.00;77172.91;5056222;28;20024;-77
2023/04/26 01:27:11;;;;;;;4.30;1.50;;;;;;;-148.88;100.00;77179.00;5068076;22;20187;-75
2023/04/26 01:29:36;;;;;;;7.78;3.47;;;;;;;-148.88;100.00;77183.06;5055321;28;20062;-75
2023/04/26 01:32:01;;;;;;;6.93;1.70;;;;;;;-148.88;100.00;77191.19;5055616;28;20036;-74
2023/04/26 01:34:27;;;;;;;9.68;2.03;;;;;;;-148.88;100.00;77195.25;5055704;28;20106;-75
2023/04/26 01:36:52;;;;;;;6.22;1.90;;;;;;;-148.88;100.00;77187.13;5055319;28;20205;-75
2023/04/26 01:39:18;;;;;;;4.78;1.73;;;;;;;-148.88;100.00;77183.06;5037451;28;20107;-75
2023/04/26 01:41:43;;;;;;;7.80;1.88;;;;;;;-148.88;100.00;77179.00;5055267;28;20035;-75
2023/04/26 01:44:08;;;;;;;5.45;1.50;;;;;;;-148.88;100.00;77191.19;5055376;28;20421;-75
2023/04/26 01:46:33;;;;;;;9.57;2.08;;;;;;;-148.88;100.00;77191.19;5055889;28;20013;-75
2023/04/26 01:48:59;;;;;;;8.43;1.45;;;;;;;-148.88;100.00;77197.28;5055477;28;20485;-74
2023/04/26 01:51:24;;;;;;;3.85;1.52;;;;;;;-148.88;100.00;77201.34;5055293;28;20033;-74
2023/04/26 01:53:49;;;;;;;6.18;2.05;;;;;;;-148.88;100.00;77193.22;5055404;28;20387;-75
2023/04/26 01:56:15;;;;;;;3.88;1.85;;;;;;;-148.88;100.00;77187.13;5054994;28;20025;-75
2023/04/26 01:58:41;;;;;;;7.47;2.03;;;;;;;-148.88;100.00;77195.25;5055024;28;20523;-74
2023/04/26 02:01:07;;;;;;;10.05;1.77;;;;;;;-148.88;100.00;77187.13;5054923;28;20376;-75
2023/04/26 02:03:33;;;;;;;5.25;1.67;;;;;;;-148.88;100.00;77193.22;5054905;28;20029;-75
2023/04/26 02:05:58;;;;;;;6.13;2.25;;;;;;;-148.88;100.00;77195.25;5054872;28;20135;-75
2023/04/26 02:08:23;;;;;;;8.77;2.00;;;;;;;-148.88;100.00;77199.31;5055023;28;20025;-74
2023/04/26 02:10:49;;;;;;;7.20;2.10;;;;;;;-148.88;100.00;77195.25;5054811;28;20032;-75
2023/04/26 02:13:14;;;;;;;6.47;1.95;;;;;;;-148.88;100.00;77213.56;5054677;28;20497;-75
2023/04/26 02:15:39;;;;;;;6.68;1.90;;;;;;;-148.88;100.00;77199.31;5054417;28;20025;-75
2023/04/26 02:18:05;;;;;;;9.27;2.25;;;;;;;-148.88;100.00;77211.53;5054532;28;20036;-75
2023/04/26 02:20:31;;;;;;;6.45;2.08;;;;;;;-148.88;100.00;77207.47;5054696;28;20025;-74
2023/04/26 02:22:56;;;;;;;10.40;2.08;;;;;;;-148.88;100.00;77211.53;5054366;28;20051;-74
2023/04/26 02:25:21;;;;;;;11.23;2.38;;;;;;;-148.88;100.00;77223.72;5036310;28;20025;-75
2023/04/26 02:27:46;;;;;;;5.75;1.85;;;;;;;-148.88;100.00;77223.72;5054667;28;20029;-74
2023/04/26 02:30:12;;;;;;;6.00;2.00;;;;;;;-148.88;100.00;77223.72;5054321;28;20024;-75
2023/04/26 02:32:38;;;;;;;14.75;2.67;;;;;;;-148.88;100.00;77229.81;5054316;28;20113;-74
2023/04/26 02:35:04;;;;;;;6.38;2.15;;;;;;;-148.88;100.00;77207.47;5054159;28;20044;-75
2023/04/26 02:37:29;;;;;;;11.45;2.50;;;;;;;-148.88;100.00;77231.84;5054277;28;20024;-75
2023/04/26 02:39:55;;;;;;;15.07;3.17;;;;;;;-148.88;100.00;77223.72;5054132;28;20021;-74
2023/04/26 02:42:20;;;;;;;8.10;2.30;;;;;;;-148.88;100.00;77237.94;5054533;28;20035;-74
2023/04/26 02:44:45;;;;;;;7.47;2.45;;;;;;;-148.88;100.00;77248.09;5054059;28;20444;-75
2023/04/26 02:47:11;;;;;;;5.70;2.30;;;;;;;-148.88;100.00;77248.09;5053962;28;20028;-75
2023/04/26 02:49:36;;;;;;;7.72;2.17;;;;;;;-148.88;100.00;77252.16;5036197;28;20479;-74
2023/04/26 02:52:01;;;;;;;8.70;2.38;;;;;;;-148.88;100.00;77254.19;5053891;28;20033;-75
2023/04/26 02:54:26;;;;;;;13.57;1.92;;;;;;;-148.88;100.00;77260.28;5053739;28;20024;-75
2023/04/26 02:56:52;;;;;;;15.40;2.30;;;;;;;-148.88;100.00;77266.38;5053903;28;20052;-75
2023/04/26 02:59:17;;;;;;;6.78;2.45;;;;;;;-148.88;100.00;77262.31;5035733;28;20025;-75
2023/04/26 03:01:42;;;;;;;7.55;2.40;;;;;;;-148.88;100.00;77256.22;5053930;28;20448;-74
2023/04/26 03:04:08;;;;;;;6.82;1.90;;;;;;;-148.88;100.00;77252.16;5053867;28;20024;-75
2023/04/26 03:06:33;;;;;;;8.02;2.15;;;;;;;-148.88;100.00;77244.03;5053849;28;20426;-75
2023/04/26 03:08:59;;;;;;;13.75;4.50;;;;;;;-148.88;100.00;77252.16;5053698;28;20031;-75
2023/04/26 03:11:24;;;;;;;26.88;4.65;;;;;;;-148.88;100.00;77258.25;5053675;28;20086;-74
2023/04/26 03:13:50;;;;;;;6.65;2.72;;;;;;;-148.88;100.00;77260.28;5053399;28;20047;-76
2023/04/26 03:16:18;;;;;;;6.68;2.55;;;;;;;-148.88;100.00;77260.28;5053223;28;20388;-75
2023/04/26 03:18:43;;;;;;;8.02;3.50;;;;;;;-148.88;100.00;77268.41;5053390;28;20028;-74
2023/04/26 03:21:08;;;;;;;7.18;2.45;;;;;;;-148.88;100.00;77262.31;5053305;28;20107;-74
2023/04/26 03:23:33;;;;;;;6.32;2.60;;;;;;;-148.88;100.00;77272.47;5053314;28;20356;-75
2023/04/26 03:25:59;;;;;;;5.78;2.00;;;;;;;-148.88;100.00;77272.47;5053374;28;20044;-75
2023/04/26 03:28:24;;;;;;;10.93;2.63;;;;;;;-148.88;100.00;77274.50;5053218;28;20494;-74
2023/04/26 03:30:50;;;;;;;9.63;2.42;;;;;;;-148.88;100.00;77274.50;5053312;28;20480;-75
2023/04/26 03:33:16;;;;;;;6.28;2.33;;;;;;;-148.88;100.00;77268.41;5053632;28;20025;-74
2023/04/26 03:35:45;;;;;;;10.15;2.20;;;;;;;-148.88;100.00;77268.41;5052551;28;20025;-75
2023/04/26 03:38:10;;;;;;;8.35;2.17;;;;;;;-148.88;100.00;77272.47;5053162;28;20103;-75
2023/04/26 03:40:35;;;;;;;6.72;2.25;;;;;;;-148.88;100.00;77266.38;5053597;28;20392;-74
2023/04/26 03:43:01;;;;;;;4.82;2.20;;;;;;;-148.88;100.00;77262.31;5035280;28;20428;-74
2023/04/26 03:45:26;;;;;;;4.43;2.45;;;;;;;-148.88;100.00;77276.53;5054034;28;20032;-75
2023/04/26 03:47:51;;;;;;;8.05;2.72;;;;;;;-148.88;100.00;77288.72;5052974;28;20100;-76
2023/04/26 03:50:17;;;;;;;5.80;2.10;;;;;;;-148.88;100.00;77280.59;5034951;28;20063;-76
2023/04/26 03:52:43;;;;;;;3.72;2.10;;;;;;;-148.88;100.00;77286.69;5034954;28;20032;-76
2023/04/26 03:55:10;;;;;;;11.20;2.60;;;;;;;-148.88;100.00;77282.63;5052762;28;20021;-76
2023/04/26 03:57:36;;;;;;;8.90;2.70;;;;;;;-148.88;100.00;77276.53;5052659;28;20395;-75
2023/04/26 04:00:05;;;;;;;6.22;3.00;;;;;;;-148.88;100.00;77280.59;5035085;28;20428;-75
2023/04/26 04:02:32;;;;;;;13.45;2.53;;;;;;;-148.88;100.00;77302.97;5052641;28;20029;-76
2023/04/26 04:04:57;;;;;;;7.03;2.20;;;;;;;-148.88;100.00;77292.81;5034631;28;20117;-75
2023/04/26 04:07:22;;;;;;;8.77;2.90;;;;;;;-148.88;100.00;77296.88;5052566;28;20491;-75
2023/04/26 04:09:48;;;;;;;7.80;2.88;;;;;;;-148.88;100.00;77305.00;5052480;28;20036;-75
2023/04/26 04:12:13;;;;;;;9.40;3.00;;;;;;;-148.88;100.00;77296.88;5052572;28;20124;-76
2023/04/26 04:14:38;;;;;;;10.93;2.65;;;;;;;-148.88;100.00;77313.13;5052328;28;20029;-75
2023/04/26 04:17:03;;;;;;;11.68;2.97;;;;;;;-148.88;100.00;77321.25;5052788;28;20044;-75
2023/04/26 04:19:29;;;;;;;6.30;2.92;;;;;;;-148.88;100.00;77321.25;5052265;28;20036;-75
2023/04/26 04:21:54;;;;;;;5.70;2.25;;;;;;;-148.88;100.00;77337.50;5052458;28;20031;-75
2023/04/26 04:24:19;;;;;;;11.60;2.90;;;;;;;-148.88;100.00;77327.34;5052176;28;20452;-76
2023/04/26 04:26:45;;;;;;;13.60;2.72;;;;;;;-148.88;100.00;77327.34;5052144;28;20032;-75
2023/04/26 04:29:10;;;;;;;8.15;2.92;;;;;;;-148.88;100.00;77321.25;5052338;28;20051;-75
2023/04/26 04:31:36;;;;;;;7.50;2.60;;;;;;;-148.88;100.00;77333.44;5052218;28;20434;-76
2023/04/26 04:34:01;;;;;;;8.18;2.88;;;;;;;-148.88;100.00;77325.31;5052118;28;20476;-76
2023/04/26 04:36:26;;;;;;;11.48;3.03;;;;;;;-148.88;100.00;77329.38;5034184;28;20048;-76
2023/04/26 04:38:52;;;;;;;6.05;2.38;;;;;;;-148.88;100.00;77315.16;5052191;28;20064;-77
2023/04/26 04:41:19;;;;;;;10.25;3.42;;;;;;;-148.88;100.00;77317.19;5052695;28;20025;-78
2023/04/26 04:43:45;;;;;;;12.60;3.20;;;;;;;-148.88;100.00;77325.31;5052261;28;20029;-76
2023/04/26 04:46:10;;;;;;;9.27;2.97;;;;;;;-148.88;100.00;77321.25;5056771;28;20020;-80
2023/04/26 04:48:37;;;;;;;11.20;3.97;;;;;;;-148.88;100.00;77313.13;5058049;28;20025;-76
2023/04/26 04:51:03;;;;;;;9.57;3.33;;;;;;;-148.88;100.00;77321.25;5058056;28;20040;-78
2023/04/26 04:53:29;;;;;;;8.77;3.30;;;;;;;-148.88;100.00;77321.25;5038141;28;20021;-77
2023/04/26 04:55:54;;;;;;;14.68;3.92;;;;;;;-148.88;100.00;77313.13;5056145;28;20040;-77
2023/04/26 04:58:21;;;;;;;8.98;3.30;;;;;;;-148.88;100.00;77321.25;5056182;28;20025;-77
2023/04/26 05:00:46;;;;;;;15.00;3.65;;;;;;;-148.88;100.00;77305.00;5056070;28;20394;-77
2023/04/26 05:03:13;;;;;;;10.00;3.20;;;;;;;-148.88;100.00;77311.09;5056194;28;20104;-77
2023/04/26 05:05:38;;;;;;;15.38;4.03;;;;;;;-148.88;100.00;77309.06;5038112;28;20537;-78
2023/04/26 05:08:06;;;;;;;13.30;3.38;;;;;;;-148.88;100.00;77296.88;5039820;28;20032;-79
2023/04/26 05:10:32;;;;;;;10.45;3.22;;;;;;;-148.88;100.00;77288.72;5040900;28;20025;-79
2023/04/26 05:12:57;;;;;;;10.20;4.28;;;;;;;-148.88;100.00;77288.72;5039649;28;20025;-78
2023/04/26 05:15:22;;;;;;;10.38;3.67;;;;;;;-148.88;100.00;77286.69;5058422;28;20032;-78
2023/04/26 05:17:48;;;;;;;21.27;4.45;;;;;;;-148.88;100.00;77270.44;5039023;28;20036;-79
2023/04/26 05:20:13;;;;;;;11.68;4.43;;;;;;;-148.88;100.00;77274.50;5057547;28;20021;-78
2023/04/26 05:22:39;;;;;;;13.00;3.42;;;;;;;-148.88;100.00;77268.41;5057828;28;20103;-78
2023/04/26 05:25:05;;;;;;;8.43;3.58;;;;;;;-148.88;100.00;77264.34;5057792;28;20029;-79
2023/04/26 05:27:30;;;;;;;11.40;3.25;;;;;;;-148.88;100.00;77252.16;5057103;28;20033;-78
2023/04/26 05:29:55;;;;;;;9.63;4.25;;;;;;;-148.88;100.00;77248.09;5057819;28;20448;-79
2023/04/26 05:32:21;;;;;;;11.20;3.88;;;;;;;-148.88;100.00;77256.22;5057770;28;20021;-79
2023/04/26 05:34:46;;;;;;;8.80;3.58;;;;;;;-148.88;100.00;77256.22;5057628;28;20029;-78
2023/04/26 05:37:11;;;;;;;8.32;3.30;;;;;;;-148.88;100.00;77231.84;5058070;28;20032;-78
2023/04/26 05:39:36;;;;;;;8.80;3.28;;;;;;;-148.88;100.00;77239.97;5038669;28;20024;-79
2023/04/26 05:42:02;;;;;;;9.88;3.35;;;;;;;-148.88;100.00;77223.72;5056720;28;20402;-78
2023/04/26 05:44:27;;;;;;;12.10;3.60;;;;;;;-148.88;100.00;77227.78;5056976;28;20029;-79
2023/04/26 05:46:52;;;;;;;11.68;4.07;;;;;;;-148.88;100.00;77215.59;5057332;28;20020;-78
2023/04/26 05:49:18;;;;;;;12.32;3.70;;;;;;;-148.88;100.00;77203.41;5056892;28;20082;-78
2023/04/26 05:51:45;;;;;;;17.23;3.85;;;;;;;-148.88;100.00;77207.47;5039153;28;20123;-77
2023/04/26 05:54:11;;;;;;;10.70;3.85;;;;;;;-148.88;100.00;77199.31;5038075;28;20021;-77
2023/04/26 05:56:36;;;;;;;11.57;3.90;;;;;;;-148.88;100.00;77179.00;5037440;28;20029;-77
2023/04/26 05:59:01;;;;;;;13.27;4.13;;;;;;;-148.88;100.00;77170.88;5055020;28;20028;-77
2023/04/26 06:01:27;;;;;;;9.85;3.10;;;;;;;-148.88;100.00;77170.88;5037349;28;20021;-77
2023/04/26 06:03:52;;;;;;;10.88;4.03;;;;;;;-148.88;100.00;77170.88;5055504;28;20468;-77
2023/04/26 06:06:18;;;;;;;10.50;3.83;;;;;;;-148.88;100.00;77156.66;5055315;28;20027;-77
2023/04/26 06:08:44;;;;;;;12.43;3.83;;;;;;;-148.88;100.00;77146.50;5055055;28;20104;-77
2023/04/26 06:11:09;;;;;;;8.23;3.53;;;;;;;-148.88;100.00;77136.34;5055191;28;20053;-77
2023/04/26 06:13:35;;;;;;;14.65;3.95;;;;;;;-148.88;100.00;77130.25;5054865;28;20438;-78
2023/04/26 06:16:00;;;;;;;8.48;3.53;;;;;;;-148.88;100.00;77114.00;5054887;28;20460;-77
2023/04/26 06:18:25;;;;;;;11.57;4.13;;;;;;;-148.88;100.00;77101.78;5055071;28;20028;-78
2023/04/26 06:20:50;;;;;;;10.20;3.58;;;;;;;-148.88;100.00;77093.66;5054928;28;20021;-77
2023/04/26 06:23:16;;;;;;;8.05;3.47;;;;;;;-148.88;100.00;77091.63;5037386;28;20025;-78
2023/04/26 06:25:44;;;;;;;12.27;3.25;;;;;;;-148.88;100.00;77077.41;5056066;28;20563;-77
2023/04/26 06:28:10;;;;;;;9.50;3.72;;;;;;;-148.88;100.00;77073.34;5054816;28;20367;-78
2023/04/26 06:30:36;;;;;;;8.88;3.60;;;;;;;-148.88;100.00;77053.03;5054953;28;20070;-78
2023/04/26 06:33:01;;;;;;;10.65;3.60;;;;;;;-148.88;100.00;77044.91;5056481;28;20025;-78
2023/04/26 06:35:26;;;;;;;10.15;3.17;;;;;;;-148.88;100.00;77042.88;5036755;28;20070;-78
2023/04/26 06:37:51;;;;;;;9.70;3.17;;;;;;;-148.88;100.00;77022.56;5036820;28;20025;-78
2023/04/26 06:40:17;;;;;;;10.45;2.72;;;;;;;-148.88;100.00;77006.31;5054752;28;20020;-78
2023/04/26 06:42:42;;;;;;;9.50;2.90;;;;;;;-148.88;100.00;77016.47;5054925;28;20396;-78
2023/04/26 06:45:08;;;;;;;11.90;3.15;;;;;;;-148.88;100.00;77000.19;5036955;28;20025;-78
2023/04/26 06:47:34;;;;;;;6.95;2.80;;;;;;;-148.88;100.00;76992.06;5055416;28;20079;-78
2023/04/26 06:49:59;;;;;;;8.57;3.20;;;;;;;-148.88;100.00;76988.00;5037685;28;20029;-78
2023/04/26 06:52:25;;;;;;;11.85;3.40;;;;;;;-148.88;100.00;76979.88;5056157;28;20101;-79
2023/04/26 06:54:50;;;;;;;10.48;2.83;;;;;;;-148.88;100.00;76973.78;5055832;28;20090;-79
2023/04/26 06:57:15;;;;;;;7.53;2.78;;;;;;;-148.88;100.00;76957.53;5056338;28;20025;-79
2023/04/26 06:59:41;;;;;;;12.02;2.97;;;;;;;-148.88;100.00;76951.44;5057152;28;20107;-79
2023/04/26 07:02:06;;;;;;;6.65;2.95;;;;;;;-148.88;100.00;76951.44;5040345;28;20472;-79
2023/04/26 07:04:31;;;;;;;19.33;3.17;;;;;;;-148.88;100.00;76937.22;5038005;28;20111;-78
2023/04/26 07:06:57;;;;;;;6.93;2.75;;;;;;;-148.88;99.65;76912.84;5055494;28;20035;-78
2023/04/26 07:09:22;;;;;;;7.78;2.47;;;;;;;-148.88;98.26;76902.69;5055087;28;20040;-78
2023/04/26 07:11:47;;;;;;;6.18;2.60;;;;;;;-148.88;97.02;76894.56;5037485;28;20115;-79
2023/04/26 07:14:12;;;;;;;5.90;2.45;;;;;;;-148.88;97.84;76862.03;5055075;28;20027;-78
2023/04/26 07:16:38;;;;;;;11.13;2.60;;;;;;;-148.88;95.17;76874.22;5036332;28;20025;-78
2023/04/26 07:19:03;;;;;;;9.32;2.83;;;;;;;-148.88;93.99;76866.09;5036951;28;20094;-78
2023/04/26 07:21:28;;;;;;;7.22;2.20;;;;;;;-148.88;95.20;76853.91;5054959;28;20031;-78
2023/04/26 07:23:57;;;;;;;8.55;2.58;;;;;;;-148.88;94.63;76845.78;5037224;28;20132;-79
2023/04/26 07:26:23;;;;;;;5.60;1.95;;;;;;;-148.88;93.48;76839.69;5036828;28;20437;-77
2023/04/26 07:28:52;;;;;;;6.13;2.40;;;;;;;-148.88;92.28;76829.53;5038832;28;20017;-79
2023/04/26 07:31:18;;;;;;;7.22;2.38;;;;;;;-148.88;91.12;76829.53;5054255;28;20372;-78
2023/04/26 07:33:43;;;;;;;8.48;2.35;;;;;;;-148.88;90.72;76813.28;5054129;28;20016;-78
2023/04/26 07:36:08;;;;;;;5.55;2.13;;;;;;;-148.88;90.68;76801.09;5054540;28;20040;-78
2023/04/26 07:38:34;;;;;;;7.97;1.92;;;;;;;-148.88;91.81;76788.91;5034721;28;20483;-78
2023/04/26 07:41:03;;;;;;;7.60;1.80;;;;;;;-148.88;88.15;76784.84;5052974;28;20111;-77
2023/04/26 07:43:29;;;;;;;7.78;2.35;;;;;;;-148.88;90.67;76760.44;5053015;28;20025;-78
2023/04/26 07:45:58;;;;;;;6.40;2.08;;;;;;;-148.88;85.91;76760.44;5035504;28;20025;-78
2023/04/26 07:48:24;;;;;;;9.20;1.70;;;;;;;-148.88;86.36;76736.06;5036083;28;20151;-78
2023/04/26 07:50:49;;;;;;;8.85;2.20;;;;;;;-148.88;84.63;76709.66;5053682;28;20098;-78
2023/04/26 07:53:14;;;;;;;5.60;1.90;;;;;;;-148.88;79.30;76717.78;5053806;28;20453;-78
2023/04/26 07:55:40;;;;;;;9.82;1.95;;;;;;;-148.88;81.39;76723.88;5035748;28;20025;-78
2023/04/26 07:58:05;;;;;;;5.78;1.98;;;;;;;-148.88;84.68;76727.94;5035640;28;20024;-78
2023/04/26 08:00:32;;;;;;;3.22;1.70;;;;;;;-148.88;84.34;76727.94;5053666;28;20127;-78
2023/04/26 08:02:57;;;;;;;3.60;1.45;;;;;;;-148.88;85.50;76697.47;5053284;28;20020;-78
2023/04/26 08:05:22;;;;;;;7.63;2.33;;;;;;;-148.88;82.74;76756.41;5053480;28;20483;-78
2023/04/26 08:07:47;;;;;;;4.65;1.40;;;;;;;-148.88;78.79;76776.72;5053450;28;20024;-78
2023/04/26 08:10:13;;;;;;;4.88;1.42;;;;;;;-148.88;77.48;76772.66;5035533;28;20025;-78
2023/04/26 08:12:38;;;;;;;6.55;1.85;;;;;;;-148.88;77.50;76774.69;5054792;28;20025;-78
2023/04/26 08:15:04;;;;;;;3.60;0.98;;;;;;;-148.88;78.94;76756.41;5035853;28;20075;-78
2023/04/26 08:17:31;;;;;;;4.88;1.60;;;;;;;-148.88;77.41;76715.75;5052734;28;20452;-78
2023/04/26 08:19:56;;;;;;;5.60;1.55;;;;;;;-148.88;76.79;76681.22;5052441;28;20455;-78
2023/04/26 08:22:21;;;;;;;2.88;1.52;;;;;;;-148.88;74.81;76687.31;5052675;28;20054;-78
2023/04/26 08:24:51;;;;;;;4.00;1.42;;;;;;;-148.88;76.47;76693.41;5052877;28;20484;-78
2023/04/26 08:27:17;;;;;;;5.03;1.40;;;;;;;-148.88;74.00;76679.19;5053103;28;20396;-78
2023/04/26 08:29:43;;;;;;;8.20;1.52;;;;;;;-148.88;72.71;76697.47;5053425;28;20372;-78
2023/04/26 08:32:08;;;;;;;3.72;1.70;;;;;;;-148.88;75.48;76691.38;5035335;28;20017;-78
2023/04/26 08:34:34;;;;;;;6.88;1.65;;;;;;;-148.88;71.33;76703.56;5053783;28;20028;-78
2023/04/26 08:36:59;;;;;;;3.55;1.30;;;;;;;-148.88;72.97;76703.56;5053248;28;20017;-78
2023/04/26 08:39:25;;;;;;;7.43;1.60;;;;;;;-148.88;73.85;76695.44;5053289;28;20040;-79
2023/04/26 08:41:57;;;;;;;2.72;1.23;;;;;;;-148.88;71.50;76711.69;5054162;28;20025;-79
2023/04/26 08:44:24;;;;;;;6.23;1.10;;;;;;;-148.88;70.96;76707.63;5054249;28;20017;-78
2023/04/26 08:47:15;;;;;;;6.18;1.60;;;;;;;-148.88;72.72;76719.81;5055620;28;20250;-79
2023/04/26 08:49:51;;;;;;;11.10;1.65;;;;;;;-148.88;74.61;76715.75;5034773;28;20105;-79
2023/04/26 08:52:21;;;;;;;4.53;1.35;;;;;;;-148.88;73.49;76701.53;5052961;28;20021;-78
2023/04/26 08:54:49;;;;;;;5.70;1.50;;;;;;;-148.88;71.38;76691.38;5034414;28;20025;-78
2023/04/26 08:57:14;;;;;;;5.40;2.00;;;;;;;-148.88;70.67;76673.09;5034623;28;20021;-78
2023/04/26 08:59:42;;;;;;;6.68;1.52;;;;;;;-148.88;71.80;76620.28;5052731;28;20036;-78
2023/04/26 09:02:09;;;;;;;3.08;1.30;;;;;;;-148.88;69.52;76597.91;5053141;28;20074;-78
2023/04/26 09:04:35;;;;;;;3.13;1.33;;;;;;;-148.88;68.85;76610.13;5035303;28;20021;-79
2023/04/26 09:07:03;;;;;;;5.30;1.40;;;;;;;-148.88;69.94;76622.31;5053581;28;20383;-78
2023/04/26 09:09:36;;;;;;;3.08;1.33;;;;;;;-148.88;69.78;76577.59;5036238;28;20021;-79
2023/04/26 09:12:02;;;;;;;4.60;1.58;;;;;;;-148.88;67.26;76528.84;5059227;28;20048;-79
2023/04/26 09:14:27;;;;;;;4.57;1.30;;;;;;;-148.88;65.23;76504.47;5054213;28;20410;-78
2023/04/26 09:16:53;;;;;;;5.00;1.45;;;;;;;-148.88;66.86;76508.53;5035961;28;20017;-79
2023/04/26 09:19:43;;;;;;;5.22;1.52;;;;;;;-148.88;63.68;76500.41;5054906;28;20027;-79
2023/04/26 09:22:08;;;;;;;6.60;1.42;;;;;;;-148.88;63.44;76492.28;5036806;28;20025;-79
2023/04/26 09:24:47;;;;;;;2.42;1.58;;;;;;;-148.88;59.87;76532.91;5055212;28;20031;-79
2023/04/26 09:27:14;;;;;;;4.53;1.30;;;;;;;-148.88;62.74;76549.16;5054753;28;20021;-78
2023/04/26 09:29:39;;;;;;;7.97;1.33;;;;;;;-148.88;63.43;76541.03;5052241;28;20074;-78
2023/04/26 09:32:06;;;;;;;5.93;1.63;;;;;;;-148.88;68.02;76575.56;5034375;28;20038;-78
2023/04/26 09:34:44;;;;;;;3.25;1.35;;;;;;;-148.88;66.78;76593.84;5037136;28;20039;-78
2023/04/26 09:37:11;;;;;;;5.68;1.52;;;;;;;-148.88;67.25;76567.44;5056266;28;20029;-79
2023/04/26 09:39:39;;;;;;;5.05;1.95;;;;;;;-148.88;66.56;76583.69;5056594;28;20443;-79
2023/04/26 09:42:05;;;;;;;7.72;1.90;;;;;;;-148.88;67.21;76618.25;5038094;28;20428;-79
2023/04/26 09:44:31;;;;;;;7.22;1.55;;;;;;;-148.88;66.70;76606.06;5055978;28;20440;-79
2023/04/26 09:47:10;;;;;;;4.55;1.60;;;;;;;-148.88;65.99;76599.94;5038175;28;20021;-78
2023/04/26 09:50:02;;;;;;;3.90;1.88;;;;;;;-148.88;66.33;76601.97;5038696;28;20380;-79
2023/04/26 09:52:28;;;;;;;4.32;1.60;;;;;;;-148.88;67.79;76604.00;5052757;28;20043;-79
2023/04/26 09:54:54;;;;;;;4.50;1.42;;;;;;;-148.88;65.84;76612.13;5038607;28;20119;-79
2023/04/26 09:57:21;;;;;;;3.33;1.40;;;;;;;-148.88;67.66;76632.47;5039275;28;20039;-79
2023/04/26 09:59:47;;;;;;;6.03;2.17;;;;;;;-148.88;67.60;76630.44;5040703;28;20025;-78
2023/04/26 10:02:15;;;;;;;5.65;2.15;;;;;;;-148.88;68.50;76622.31;5040475;28;20506;-79
2023/04/26 10:04:45;;;;;;;4.10;1.80;;;;;;;-148.88;68.61;76606.06;5038210;28;20025;-78
2023/04/26 10:07:12;;;;;;;4.60;1.83;;;;;;;-148.88;70.07;76597.91;5055126;28;20369;-78
2023/04/26 10:09:38;;;;;;;4.65;2.15;;;;;;;-148.88;67.60;76622.31;5037017;28;20024;-78
2023/04/26 10:12:03;;;;;;;4.38;1.63;;;;;;;-148.88;68.85;76638.56;5037330;28;20025;-78
2023/04/26 10:14:29;;;;;;;6.68;2.22;;;;;;;-148.88;69.17;76612.13;5055274;28;20020;-78
2023/04/26 10:16:56;;;;;;;5.72;1.70;;;;;;;-148.88;69.36;76618.25;5037733;28;20075;-79
2023/04/26 10:19:21;;;;;;;6.97;3.38;;;;;;;-148.88;73.54;76642.63;5055775;28;20032;-78
2023/04/26 10:21:49;;;;;;;4.88;1.83;;;;;;;-148.88;75.75;76634.50;5055739;28;20025;-78
2023/04/26 10:24:15;;;;;;;3.97;1.42;;;;;;;-148.88;75.99;76664.97;5038237;28;20025;-79
2023/04/26 10:26:51;;;;;;;6.82;1.85;;;;;;;-148.88;76.77;76667.00;5055490;28;20025;-78
2023/04/26 10:29:18;;;;;;;9.23;2.25;;;;;;;-148.88;75.67;76640.59;5055999;28;20029;-78
2023/04/26 10:32:05;;;;;;;7.47;1.77;;;;;;;-148.88;73.87;76646.69;5038604;28;20036;-79
2023/04/26 10:34:32;;;;;;;5.85;2.35;;;;;;;-148.88;75.88;76616.22;5040604;28;20120;-79
2023/04/26 10:37:11;;;;;;;7.35;2.20;;;;;;;-148.88;72.76;76557.28;5040332;28;20039;-79
2023/04/26 10:39:39;;;;;;;4.47;1.73;;;;;;;-148.88;67.58;76469.94;5058059;28;20021;-79
2023/04/26 10:42:22;;;;;;;3.58;2.17;;;;;;;-148.88;63.75;76374.44;5036886;28;20415;-78
2023/04/26 10:44:54;;;;;;;7.25;2.47;;;;;;;-148.88;62.52;76425.25;5053226;28;20025;-78
2023/04/26 10:47:23;;;;;;;18.40;3.75;;;;;;;-148.88;60.89;76453.69;5054950;28;20024;-78
2023/04/26 10:49:48;;;;;;;7.25;2.15;;;;;;;-148.88;63.55;76482.13;5054716;28;20021;-78
2023/04/26 10:52:19;;;;;;;5.88;1.88;;;;;;;-148.88;65.95;76524.78;5036932;28;20029;-79
2023/04/26 10:54:47;;;;;;;6.18;2.22;;;;;;;-148.88;65.50;76498.38;5054811;28;20032;-78
2023/04/26 10:57:13;;;;;;;5.22;2.53;;;;;;;-148.88;64.70;76500.41;5055113;28;20475;-79
2023/04/26 10:59:38;;;;;;;4.88;1.52;;;;;;;-148.88;62.70;76524.78;5055317;28;20050;-79
2023/04/26 11:02:04;;;;;;;6.68;1.73;;;;;;;-148.88;64.24;76559.31;5054711;28;20032;-79
2023/04/26 11:04:51;;;;;;;5.53;1.90;;;;;;;-148.88;66.56;76569.47;5054955;28;20100;-79
2023/04/26 11:07:38;;;;;;;6.97;1.80;;;;;;;-148.88;66.40;76528.84;5055513;28;20025;-79